Time;durP1;ratioP1;P1;durP2;ratioP2;P2;SDS_P1;SDS_P2;PMS_P1;PMS_P2;Temp;Humidity;BMP_temperature;BMP_pressure;BME280_temperature;BME280_humidity;BME280_pressure;Samples;Min_cycle;Max_cycle;Signal;HPM_P1;HPM_P2
2022/11/02 00:00:48;;;;;;;9.68;3.65;;;;;;;7.75;100.00;100944.88;21006913;28;20065;-75
2022/11/02 00:10:49;;;;;;;11.63;3.47;;;;;;;7.74;100.00;100940.53;21008325;28;20052;-75
2022/11/02 00:20:51;;;;;;;11.15;3.25;;;;;;;7.69;100.00;100931.81;21008432;28;20126;-78
2022/11/02 00:30:52;;;;;;;9.80;3.60;;;;;;;7.61;100.00;100934.38;21007928;28;20074;-75
2022/11/02 00:40:53;;;;;;;12.57;3.70;;;;;;;7.47;100.00;100928.22;20978225;28;20489;-77
2022/11/02 00:50:55;;;;;;;8.38;3.70;;;;;;;7.37;100.00;100940.31;20910863;28;20493;-82
2022/11/02 01:00:56;;;;;;;13.50;3.85;;;;;;;7.32;100.00;100934.22;20968869;28;20064;-77
2022/11/02 01:10:57;;;;;;;10.52;3.20;;;;;;;7.34;100.00;100937.72;21076023;28;20052;-77
2022/11/02 01:20:59;;;;;;;9.07;3.38;;;;;;;7.45;100.00;100928.22;21076426;28;20052;-75
2022/11/02 01:31:00;;;;;;;11.45;3.05;;;;;;;7.75;100.00;100903.16;21074839;28;20101;-78
2022/11/02 01:41:02;;;;;;;15.88;3.63;;;;;;;8.03;100.00;100905.88;21042497;28;20048;-74
2022/11/02 01:51:03;;;;;;;10.15;3.28;;;;;;;8.29;100.00;100904.19;20989263;28;20179;-74
2022/11/02 02:01:05;;;;;;;8.48;3.33;;;;;;;8.42;100.00;100905.09;20985489;28;20078;-75
2022/11/02 02:11:06;;;;;;;14.00;3.30;;;;;;;8.59;100.00;100897.28;20985590;28;20056;-74
2022/11/02 02:21:08;;;;;;;15.52;3.78;;;;;;;8.66;100.00;100891.19;20984473;28;20114;-73
2022/11/02 02:31:09;;;;;;;11.70;3.22;;;;;;;8.71;100.00;100886.84;20985073;28;20063;-72
2022/11/02 02:41:10;;;;;;;12.60;3.13;;;;;;;8.64;100.00;100874.69;20952682;28;20126;-73
2022/11/02 02:51:12;;;;;;;9.52;3.67;;;;;;;8.56;100.00;100874.66;20902063;28;20118;-72
2022/11/02 03:01:13;;;;;;;17.33;4.00;;;;;;;8.55;100.00;100885.13;20900133;28;20056;-72
2022/11/02 03:11:15;;;;;;;14.68;4.10;;;;;;;8.45;100.00;100890.31;20899508;28;20048;-74
2022/11/02 03:21:16;;;;;;;18.65;4.35;;;;;;;8.39;100.00;100885.09;20899548;28;20057;-74
2022/11/02 03:31:18;;;;;;;12.93;3.70;;;;;;;8.59;100.00;100881.63;20898641;28;20437;-73
2022/11/02 03:41:20;;;;;;;13.60;4.10;;;;;;;8.69;100.00;100881.63;20931371;28;20094;-74
2022/11/02 03:51:21;;;;;;;15.30;4.28;;;;;;;8.71;100.00;100892.06;20980485;28;20496;-73
2022/11/02 04:01:23;;;;;;;15.68;4.50;;;;;;;8.84;100.00;100904.25;20980559;28;20106;-74
2022/11/02 04:25:14;;;;;;;15.90;4.13;;;;;;;8.73;100.00;100945.16;20989493;28;20059;-73
2022/11/02 04:32:05;;;;;;;11.10;3.17;;;;;;;8.95;100.00;100959.06;20992984;28;20041;-74
2022/11/02 04:42:06;;;;;;;12.65;3.53;;;;;;;9.13;100.00;100984.31;20994038;28;20044;-73
2022/11/02 04:52:08;;;;;;;12.30;3.92;;;;;;;9.24;100.00;100977.34;20993254;28;20117;-72
2022/11/02 05:02:10;;;;;;;11.32;3.30;;;;;;;9.50;100.00;100974.69;20992795;28;20060;-73
2022/11/02 05:12:11;;;;;;;10.95;3.90;;;;;;;9.61;100.00;100988.63;20991469;28;20148;-73
2022/11/02 05:22:13;;;;;;;14.00;3.55;;;;;;;9.73;100.00;101003.41;20987988;28;20416;-73
2022/11/02 05:32:14;;;;;;;13.43;3.70;;;;;;;9.94;100.00;101010.31;20989074;28;20125;-73
2022/11/02 05:42:16;;;;;;;15.52;3.42;;;;;;;9.99;100.00;101005.94;20990496;28;20044;-73
2022/11/02 05:52:17;;;;;;;9.02;3.15;;;;;;;10.10;100.00;101014.59;20989950;28;20071;-72
2022/11/02 06:02:18;;;;;;;13.90;3.70;;;;;;;10.05;100.00;101041.66;20987706;28;20057;-72
2022/11/02 06:12:25;;;;;;;8.23;2.85;;;;;;;10.08;100.00;101046.91;20986929;28;20056;-71
2022/11/02 06:22:27;;;;;;;12.52;2.72;;;;;;;9.83;100.00;101065.28;20985605;28;20520;-72
2022/11/02 06:32:28;;;;;;;14.73;3.38;;;;;;;9.77;100.00;101068.78;20985003;28;20418;-74
2022/11/02 06:42:29;;;;;;;13.75;3.25;;;;;;;9.68;100.00;101094.94;20941298;28;20053;-80
2022/11/02 06:52:40;;;;;;;13.25;3.72;;;;;;;9.80;100.00;101104.50;20950693;28;20052;-76
2022/11/02 07:02:41;;;;;;;11.85;3.40;;;;;;;10.07;100.00;101119.28;21068677;28;20060;-74
2022/11/02 07:12:43;;;;;;;12.43;2.95;;;;;;;10.24;100.00;101132.34;21066006;28;20082;-74
2022/11/02 07:22:44;;;;;;;10.27;2.30;;;;;;;10.31;100.00;101139.34;21066306;28;20553;-74
2022/11/02 07:32:46;;;;;;;9.82;2.72;;;;;;;10.47;100.00;101146.25;21064908;28;20051;-73
2022/11/02 07:42:47;;;;;;;12.35;2.58;;;;;;;10.59;100.00;101160.16;20998325;28;20060;-73
2022/11/02 07:52:49;;;;;;;11.77;2.63;;;;;;;10.62;100.00;101160.16;20902636;28;20049;-73
2022/11/02 08:02:50;;;;;;;9.80;2.53;;;;;;;10.77;100.00;101171.44;20913466;28;20064;-73
2022/11/02 08:12:52;;;;;;;10.90;2.40;;;;;;;10.89;100.00;101195.88;20943067;28;20542;-73
2022/11/02 08:22:53;;;;;;;7.70;2.55;;;;;;;10.89;100.00;101195.88;20956703;28;20044;-73
2022/11/02 08:32:54;;;;;;;10.93;3.10;;;;;;;10.98;100.00;101185.34;20931036;28;20117;-74
2022/11/02 08:42:57;;;;;;;8.95;2.80;;;;;;;11.08;100.00;101201.91;20970503;28;20058;-75
2022/11/02 08:52:58;;;;;;;9.15;2.40;;;;;;;11.23;100.00;101207.91;20999880;28;20056;-74
2022/11/02 09:03:00;;;;;;;12.30;2.53;;;;;;;11.39;100.00;101218.31;20990376;28;20419;-74
2022/11/02 09:13:01;;;;;;;10.88;2.30;;;;;;;11.61;100.00;101221.69;20992172;28;20541;-74
2022/11/02 09:23:03;;;;;;;11.95;2.13;;;;;;;11.82;100.00;101209.28;20991420;28;20050;-73
2022/11/02 09:33:05;;;;;;;13.73;1.90;;;;;;;12.18;100.00;101211.63;20989898;28;20048;-74
2022/11/02 09:43:07;;;;;;;11.23;3.13;;;;;;;12.28;100.00;101208.03;20989131;28;20049;-74
2022/11/02 09:53:08;;;;;;;11.70;2.50;;;;;;;12.48;100.00;101207.81;20988182;28;20052;-73
2022/11/02 10:03:10;;;;;;;10.15;2.67;;;;;;;12.84;100.00;101225.81;20987243;28;20114;-73
2022/11/02 10:13:11;;;;;;;10.98;2.42;;;;;;;13.22;100.00;101218.34;20985878;28;20417;-73
2022/11/02 10:23:12;;;;;;;11.63;2.95;;;;;;;13.33;100.00;101219.94;20985064;28;20459;-73
2022/11/02 10:33:14;;;;;;;13.70;2.10;;;;;;;12.98;100.00;101217.78;20984710;28;20052;-72
2022/11/02 10:43:15;;;;;;;10.02;2.22;;;;;;;13.10;100.00;101221.97;20983486;28;20060;-69
2022/11/02 10:53:17;;;;;;;13.50;2.33;;;;;;;13.17;100.00;101215.75;20983978;28;20057;-71
2022/11/02 11:03:38;;;;;;;9.98;2.00;;;;;;;13.67;100.00;101210.69;20982498;28;20080;-70
2022/11/02 11:13:40;;;;;;;15.50;2.15;;;;;;;13.81;100.00;101200.81;20981593;28;20056;-70
2022/11/02 11:24:01;;;;;;;10.10;1.77;;;;;;;14.00;100.00;101185.59;20979965;28;20075;-69
2022/11/02 11:34:03;;;;;;;11.98;1.65;;;;;;;14.23;100.00;101182.53;20980778;28;20048;-69
2022/11/02 11:44:04;;;;;;;9.73;1.90;;;;;;;14.35;97.04;101163.88;20980982;28;20094;-69
2022/11/02 11:54:05;;;;;;;14.02;1.70;;;;;;;14.27;94.27;101157.88;20974708;28;20083;-71
2022/11/02 12:04:07;;;;;;;10.20;1.80;;;;;;;14.37;90.16;101155.06;20977287;28;20418;-72
2022/11/02 12:14:09;;;;;;;9.70;2.00;;;;;;;14.47;94.68;101144.31;20979958;28;20083;-72
2022/11/02 12:24:10;;;;;;;11.30;2.40;;;;;;;14.78;96.47;101123.50;20975850;28;20467;-72
2022/11/02 12:34:12;;;;;;;9.95;2.78;;;;;;;15.00;92.83;101129.19;20979330;28;20052;-71
2022/11/02 12:44:13;;;;;;;13.43;2.53;;;;;;;14.62;97.24;101122.97;20989891;28;20546;-71
2022/11/02 12:54:14;;;;;;;9.45;2.17;;;;;;;14.59;98.47;101105.44;20993545;28;20486;-71
2022/11/02 13:04:16;;;;;;;11.05;2.42;;;;;;;14.78;94.50;101092.72;20991365;28;20056;-70
2022/11/02 13:14:17;;;;;;;9.40;1.77;;;;;;;14.93;92.24;101094.16;20990928;28;20052;-71
2022/11/02 13:24:19;;;;;;;7.35;1.60;;;;;;;14.85;90.31;101080.28;20991409;28;20626;-71
2022/11/02 13:34:20;;;;;;;9.88;1.90;;;;;;;14.91;90.51;101072.25;20989897;28;20725;-71
2022/11/02 13:44:21;;;;;;;14.07;2.10;;;;;;;14.83;87.82;101069.78;20930933;28;20464;-71
2022/11/02 13:54:23;;;;;;;9.23;1.63;;;;;;;14.95;86.56;101073.91;20905596;28;20478;-72
2022/11/02 14:04:24;;;;;;;12.25;1.80;;;;;;;14.84;68.15;101082.03;20902551;28;20045;-72
2022/11/02 14:14:26;;;;;;;10.77;1.77;;;;;;;14.77;67.52;101063.78;20902264;28;20045;-71
2022/11/02 14:24:27;;;;;;;7.03;1.98;;;;;;;14.72;67.03;101063.00;20903793;28;20048;-71
2022/11/02 14:34:28;;;;;;;6.68;1.67;;;;;;;14.58;67.39;101047.50;20902384;28;20049;-71
2022/11/02 14:44:30;;;;;;;8.88;2.28;;;;;;;14.53;69.82;101044.09;20961520;28;20072;-71
2022/11/02 14:54:31;;;;;;;4.80;1.33;;;;;;;14.30;73.66;101032.25;20983956;28;20063;-72
2022/11/02 15:04:32;;;;;;;11.00;1.83;;;;;;;14.19;74.62;101031.59;20982564;28;20052;-71
2022/11/02 15:14:34;;;;;;;8.27;1.90;;;;;;;13.91;78.51;101018.13;20983888;28;20109;-72
2022/11/02 15:24:35;;;;;;;7.82;1.55;;;;;;;13.64;80.10;101026.53;20982301;28;20093;-71
2022/11/02 15:34:37;;;;;;;9.20;2.03;;;;;;;13.35;83.29;101018.25;20981777;28;20570;-72
2022/11/02 15:44:38;;;;;;;9.48;2.17;;;;;;;12.88;93.23;101019.00;20920877;28;20052;-73
2022/11/02 15:54:39;;;;;;;10.20;2.72;;;;;;;12.41;100.00;101020.56;20898505;28;20077;-72
2022/11/02 16:04:46;;;;;;;9.18;2.40;;;;;;;11.97;100.00;101006.22;20897141;28;20048;-72
2022/11/02 16:14:47;;;;;;;7.00;2.47;;;;;;;11.69;100.00;101007.38;20901265;28;20527;-72
2022/11/02 16:24:48;;;;;;;9.85;2.88;;;;;;;11.34;100.00;101005.09;20912535;28;20437;-72
2022/11/02 16:34:50;;;;;;;9.18;2.80;;;;;;;11.11;100.00;101003.53;20910671;28;20057;-72
2022/11/02 16:44:51;;;;;;;13.68;3.60;;;;;;;10.87;100.00;100999.38;20972951;28;20061;-72
2022/11/02 16:54:53;;;;;;;14.02;4.93;;;;;;;10.65;100.00;100995.19;20993052;28;20114;-72
2022/11/02 17:04:54;;;;;;;19.42;6.68;;;;;;;10.45;100.00;100993.56;20977869;28;20105;-72
2022/11/02 17:15:00;;;;;;;16.02;6.68;;;;;;;10.28;100.00;100984.91;20948159;28;20076;-72
2022/11/02 17:25:02;;;;;;;14.93;7.30;;;;;;;10.13;100.00;100977.97;20926286;28;20060;-73
2022/11/02 17:35:03;;;;;;;18.77;8.90;;;;;;;9.96;100.00;100985.00;20940341;28;21099;-73
2022/11/02 17:45:05;;;;;;;21.13;10.10;;;;;;;9.89;100.00;100986.78;20933314;28;20076;-73
2022/11/02 17:55:06;;;;;;;17.73;8.85;;;;;;;9.68;100.00;100985.13;21059628;28;20079;-73
2022/11/02 18:05:07;;;;;;;22.95;9.85;;;;;;;9.55;100.00;100977.31;21014044;28;20547;-73
2022/11/02 18:15:09;;;;;;;18.23;8.57;;;;;;;9.58;100.00;100964.22;20924736;28;20052;-73
2022/11/02 18:25:10;;;;;;;17.13;8.00;;;;;;;9.61;100.00;100972.06;20957868;28;20048;-73
2022/11/02 18:35:11;;;;;;;18.95;8.93;;;;;;;9.66;100.00;100967.69;20974446;28;20088;-73
2022/11/02 18:45:13;;;;;;;19.17;8.75;;;;;;;9.72;100.00;100954.59;20975109;28;20094;-73
2022/11/02 18:55:14;;;;;;;23.33;10.10;;;;;;;9.72;100.00;100941.50;20976123;28;20443;-72
2022/11/02 19:15:37;;;;;;;22.33;7.82;;;;;;;9.75;100.00;100926.69;21004171;28;20547;-72
2022/11/02 19:25:42;;;;;;;22.02;7.95;;;;;;;9.72;100.00;100926.69;20973610;28;20135;-72
2022/11/02 19:35:44;;;;;;;12.73;6.15;;;;;;;9.82;100.00;100927.56;20972779;28;20060;-73
2022/11/02 19:45:45;;;;;;;18.77;5.72;;;;;;;9.75;100.00;100920.59;20901790;28;20053;-72
2022/11/02 19:55:46;;;;;;;13.43;5.10;;;;;;;9.48;100.00;100904.13;20906386;28;20057;-71
2022/11/02 20:05:48;;;;;;;19.58;7.18;;;;;;;9.28;100.00;100905.91;20904560;28;20122;-72
2022/11/02 20:15:49;;;;;;;15.15;4.95;;;;;;;9.06;100.00;100905.09;20957536;28;20048;-73
2022/11/02 20:25:51;;;;;;;18.63;5.93;;;;;;;8.87;100.00;100898.16;20987925;28;20048;-73
2022/11/02 20:35:52;;;;;;;15.32;7.00;;;;;;;8.73;100.00;100895.56;20984554;28;20056;-72
2022/11/02 20:45:54;;;;;;;20.13;7.53;;;;;;;8.66;100.00;100888.56;20916260;28;20526;-73
2022/11/02 20:56:11;;;;;;;25.65;10.82;;;;;;;8.52;100.00;100885.97;20903648;28;20509;-72
2022/11/02 21:06:12;;;;;;;20.48;8.07;;;;;;;8.27;100.00;100879.81;20898328;28;20081;-72
2022/11/02 21:16:14;;;;;;;14.38;6.82;;;;;;;8.06;100.00;100874.59;20954698;28;20052;-72
2022/11/02 21:26:16;;;;;;;16.27;7.55;;;;;;;7.98;100.00;100862.38;20980418;28;20508;-72
2022/11/02 21:36:17;;;;;;;18.67;7.68;;;;;;;7.89;100.00;100856.28;20980502;28;20051;-74
2022/11/02 21:46:18;;;;;;;20.42;7.30;;;;;;;7.78;100.00;100848.44;20906272;28;20049;-74
2022/11/02 21:56:20;;;;;;;16.88;8.18;;;;;;;7.78;100.00;100847.56;20897822;28;20497;-74
2022/11/02 22:06:21;;;;;;;16.30;7.25;;;;;;;7.63;100.00;100848.41;20897286;28;20087;-73
2022/11/02 22:16:30;;;;;;;15.10;6.93;;;;;;;7.45;100.00;100837.03;20955583;28;20094;-74
2022/11/02 22:26:32;;;;;;;17.45;7.63;;;;;;;7.43;100.00;100830.94;20979235;28;20470;-75
2022/11/02 22:36:33;;;;;;;18.05;7.47;;;;;;;7.36;100.00;100826.56;20977641;28;20125;-74
2022/11/02 22:46:35;;;;;;;15.52;8.05;;;;;;;7.35;100.00;100827.44;20901578;28;20053;-74
2022/11/02 22:56:36;;;;;;;15.60;7.72;;;;;;;7.39;100.00;100818.78;20894725;28;20045;-75
2022/11/02 23:06:38;;;;;;;20.48;8.55;;;;;;;7.34;100.00;100807.47;20958535;28;20091;-74
2022/11/02 23:16:39;;;;;;;17.13;8.05;;;;;;;7.22;100.00;100794.38;20983096;28;20044;-75
2022/11/02 23:26:40;;;;;;;18.23;7.40;;;;;;;7.19;100.00;100783.97;20982695;28;20044;-75
2022/11/02 23:36:46;;;;;;;16.42;7.47;;;;;;;7.04;100.00;100784.78;20982727;28;20048;-75
2022/11/02 23:46:48;;;;;;;16.77;7.13;;;;;;;7.00;100.00;100780.41;20903867;28;20075;-75
2022/11/02 23:56:49;;;;;;;16.10;7.45;;;;;;;6.88;100.00;100773.41;20898791;28;20056;-76
